sensor_id;sensor_type;location;lat;lon;timestamp;P1;durP1;ratioP1;P2;durP2;ratioP2
61471;SDS011;47337;54.068;12.114;2024-01-06T00:00:00;7.72;;;4.80;;
61471;SDS011;47337;54.068;12.114;2024-01-06T00:02:25;6.47;;;4.18;;
61471;SDS011;47337;54.068;12.114;2024-01-06T00:04:50;9.43;;;3.95;;
61471;SDS011;47337;54.068;12.114;2024-01-06T00:07:16;9.77;;;5.40;;
61471;SDS011;47337;54.068;12.114;2024-01-06T00:09:41;8.73;;;4.68;;
61471;SDS011;47337;54.068;12.114;2024-01-06T00:12:06;8.32;;;4.35;;
61471;SDS011;47337;54.068;12.114;2024-01-06T00:14:31;9.25;;;4.55;;
61471;SDS011;47337;54.068;12.114;2024-01-06T00:16:57;8.73;;;4.85;;
61471;SDS011;47337;54.068;12.114;2024-01-06T00:19:22;5.97;;;3.90;;
61471;SDS011;47337;54.068;12.114;2024-01-06T00:21:47;8.55;;;4.80;;
61471;SDS011;47337;54.068;12.114;2024-01-06T00:24:12;11.75;;;4.60;;
61471;SDS011;47337;54.068;12.114;2024-01-06T00:26:38;8.68;;;4.40;;
61471;SDS011;47337;54.068;12.114;2024-01-06T00:29:03;6.90;;;4.20;;
61471;SDS011;47337;54.068;12.114;2024-01-06T00:31:28;6.55;;;4.10;;
61471;SDS011;47337;54.068;12.114;2024-01-06T00:33:54;6.35;;;3.88;;
61471;SDS011;47337;54.068;12.114;2024-01-06T00:36:19;8.63;;;4.40;;
61471;SDS011;47337;54.068;12.114;2024-01-06T00:38:44;10.02;;;4.10;;
61471;SDS011;47337;54.068;12.114;2024-01-06T00:41:11;7.13;;;4.15;;
61471;SDS011;47337;54.068;12.114;2024-01-06T00:43:39;8.18;;;4.18;;
61471;SDS011;47337;54.068;12.114;2024-01-06T00:46:04;8.35;;;4.45;;
61471;SDS011;47337;54.068;12.114;2024-01-06T00:48:29;8.77;;;4.13;;
61471;SDS011;47337;54.068;12.114;2024-01-06T00:50:54;10.40;;;4.03;;
61471;SDS011;47337;54.068;12.114;2024-01-06T00:53:22;6.28;;;3.35;;
61471;SDS011;47337;54.068;12.114;2024-01-06T00:55:47;6.18;;;4.50;;
61471;SDS011;47337;54.068;12.114;2024-01-06T00:58:12;8.35;;;4.53;;
61471;SDS011;47337;54.068;12.114;2024-01-06T01:00:38;10.73;;;4.07;;
61471;SDS011;47337;54.068;12.114;2024-01-06T01:03:03;6.78;;;4.05;;
61471;SDS011;47337;54.068;12.114;2024-01-06T01:05:28;8.45;;;3.97;;
61471;SDS011;47337;54.068;12.114;2024-01-06T01:07:53;11.10;;;4.13;;
61471;SDS011;47337;54.068;12.114;2024-01-06T01:10:19;6.72;;;3.72;;
61471;SDS011;47337;54.068;12.114;2024-01-06T01:12:44;6.45;;;3.95;;
61471;SDS011;47337;54.068;12.114;2024-01-06T01:15:09;7.50;;;3.90;;
61471;SDS011;47337;54.068;12.114;2024-01-06T01:17:34;7.03;;;4.07;;
61471;SDS011;47337;54.068;12.114;2024-01-06T01:20:02;9.88;;;5.00;;
61471;SDS011;47337;54.068;12.114;2024-01-06T01:22:27;6.30;;;3.78;;
61471;SDS011;47337;54.068;12.114;2024-01-06T01:24:52;6.43;;;3.97;;
61471;SDS011;47337;54.068;12.114;2024-01-06T01:27:17;9.40;;;4.35;;
61471;SDS011;47337;54.068;12.114;2024-01-06T01:29:45;6.25;;;4.05;;
61471;SDS011;47337;54.068;12.114;2024-01-06T01:32:10;6.90;;;3.70;;
61471;SDS011;47337;54.068;12.114;2024-01-06T01:34:35;9.02;;;3.97;;
61471;SDS011;47337;54.068;12.114;2024-01-06T01:37:01;8.35;;;4.03;;
61471;SDS011;47337;54.068;12.114;2024-01-06T01:39:26;8.13;;;3.90;;
61471;SDS011;47337;54.068;12.114;2024-01-06T01:41:53;8.75;;;4.07;;
61471;SDS011;47337;54.068;12.114;2024-01-06T01:44:18;8.38;;;4.05;;
61471;SDS011;47337;54.068;12.114;2024-01-06T01:46:44;7.43;;;3.65;;
61471;SDS011;47337;54.068;12.114;2024-01-06T01:49:09;6.90;;;4.15;;
61471;SDS011;47337;54.068;12.114;2024-01-06T01:51:37;9.25;;;4.25;;
61471;SDS011;47337;54.068;12.114;2024-01-06T01:54:03;7.97;;;4.10;;
61471;SDS011;47337;54.068;12.114;2024-01-06T01:56:30;9.52;;;3.95;;
61471;SDS011;47337;54.068;12.114;2024-01-06T01:59:01;8.30;;;4.25;;
61471;SDS011;47337;54.068;12.114;2024-01-06T02:01:28;6.50;;;4.28;;
61471;SDS011;47337;54.068;12.114;2024-01-06T02:03:54;9.32;;;4.25;;
61471;SDS011;47337;54.068;12.114;2024-01-06T02:06:19;7.70;;;4.15;;
61471;SDS011;47337;54.068;12.114;2024-01-06T02:08:44;8.40;;;4.15;;
61471;SDS011;47337;54.068;12.114;2024-01-06T02:11:10;6.57;;;3.53;;
61471;SDS011;47337;54.068;12.114;2024-01-06T02:13:36;9.27;;;4.10;;
61471;SDS011;47337;54.068;12.114;2024-01-06T02:16:02;5.25;;;3.38;;
61471;SDS011;47337;54.068;12.114;2024-01-06T02:18:27;8.20;;;4.22;;
61471;SDS011;47337;54.068;12.114;2024-01-06T02:20:56;11.13;;;4.75;;
61471;SDS011;47337;54.068;12.114;2024-01-06T02:23:22;6.53;;;4.28;;
61471;SDS011;47337;54.068;12.114;2024-01-06T02:25:47;8.48;;;4.10;;
61471;SDS011;47337;54.068;12.114;2024-01-06T02:28:13;7.15;;;4.22;;
61471;SDS011;47337;54.068;12.114;2024-01-06T02:30:38;5.93;;;4.28;;
61471;SDS011;47337;54.068;12.114;2024-01-06T02:33:03;7.78;;;4.03;;
61471;SDS011;47337;54.068;12.114;2024-01-06T02:35:28;8.55;;;4.57;;
61471;SDS011;47337;54.068;12.114;2024-01-06T02:37:54;7.18;;;3.80;;
61471;SDS011;47337;54.068;12.114;2024-01-06T02:40:19;7.78;;;4.43;;
61471;SDS011;47337;54.068;12.114;2024-01-06T02:42:44;6.85;;;3.97;;
61471;SDS011;47337;54.068;12.114;2024-01-06T02:45:09;7.80;;;4.22;;
61471;SDS011;47337;54.068;12.114;2024-01-06T02:47:35;8.52;;;4.22;;
61471;SDS011;47337;54.068;12.114;2024-01-06T02:50:00;8.75;;;4.07;;
61471;SDS011;47337;54.068;12.114;2024-01-06T02:52:25;10.93;;;4.35;;
61471;SDS011;47337;54.068;12.114;2024-01-06T02:54:50;7.35;;;4.32;;
61471;SDS011;47337;54.068;12.114;2024-01-06T02:57:16;7.75;;;4.05;;
61471;SDS011;47337;54.068;12.114;2024-01-06T02:59:41;6.18;;;3.42;;
61471;SDS011;47337;54.068;12.114;2024-01-06T03:02:06;9.40;;;4.50;;
61471;SDS011;47337;54.068;12.114;2024-01-06T03:04:32;9.82;;;4.32;;
61471;SDS011;47337;54.068;12.114;2024-01-06T03:06:57;8.13;;;3.40;;
61471;SDS011;47337;54.068;12.114;2024-01-06T03:09:22;5.60;;;3.50;;
61471;SDS011;47337;54.068;12.114;2024-01-06T03:11:48;6.50;;;4.03;;
61471;SDS011;47337;54.068;12.114;2024-01-06T03:14:15;6.15;;;3.58;;
61471;SDS011;47337;54.068;12.114;2024-01-06T03:16:41;6.78;;;4.38;;
61471;SDS011;47337;54.068;12.114;2024-01-06T03:19:06;7.50;;;3.88;;
61471;SDS011;47337;54.068;12.114;2024-01-06T03:21:34;7.82;;;4.47;;
61471;SDS011;47337;54.068;12.114;2024-01-06T03:23:59;12.68;;;4.47;;
61471;SDS011;47337;54.068;12.114;2024-01-06T03:26:25;8.35;;;4.45;;
61471;SDS011;47337;54.068;12.114;2024-01-06T03:28:50;6.18;;;3.55;;
61471;SDS011;47337;54.068;12.114;2024-01-06T03:31:15;6.90;;;3.67;;
61471;SDS011;47337;54.068;12.114;2024-01-06T03:33:41;7.53;;;3.83;;
61471;SDS011;47337;54.068;12.114;2024-01-06T03:36:08;6.43;;;3.92;;
61471;SDS011;47337;54.068;12.114;2024-01-06T03:38:34;6.78;;;3.75;;
61471;SDS011;47337;54.068;12.114;2024-01-06T03:41:04;7.85;;;3.97;;
61471;SDS011;47337;54.068;12.114;2024-01-06T03:43:29;7.72;;;3.63;;
61471;SDS011;47337;54.068;12.114;2024-01-06T03:45:54;7.82;;;3.72;;
61471;SDS011;47337;54.068;12.114;2024-01-06T03:48:21;8.00;;;4.03;;
61471;SDS011;47337;54.068;12.114;2024-01-06T03:50:46;10.45;;;4.07;;
61471;SDS011;47337;54.068;12.114;2024-01-06T03:53:12;6.60;;;4.05;;
61471;SDS011;47337;54.068;12.114;2024-01-06T03:55:37;7.03;;;4.00;;
61471;SDS011;47337;54.068;12.114;2024-01-06T03:58:02;8.85;;;3.72;;
61471;SDS011;47337;54.068;12.114;2024-01-06T04:00:30;9.00;;;3.80;;
61471;SDS011;47337;54.068;12.114;2024-01-06T04:02:56;6.78;;;3.72;;
61471;SDS011;47337;54.068;12.114;2024-01-06T04:05:21;7.03;;;3.95;;
61471;SDS011;47337;54.068;12.114;2024-01-06T04:07:49;6.70;;;3.22;;
61471;SDS011;47337;54.068;12.114;2024-01-06T04:10:16;6.95;;;3.55;;
61471;SDS011;47337;54.068;12.114;2024-01-06T04:12:43;9.98;;;4.13;;
61471;SDS011;47337;54.068;12.114;2024-01-06T04:15:09;6.40;;;3.70;;
61471;SDS011;47337;54.068;12.114;2024-01-06T04:17:34;6.95;;;3.40;;
61471;SDS011;47337;54.068;12.114;2024-01-06T04:19:59;6.88;;;4.13;;
61471;SDS011;47337;54.068;12.114;2024-01-06T04:22:24;6.38;;;3.08;;
61471;SDS011;47337;54.068;12.114;2024-01-06T04:24:50;7.32;;;3.53;;
61471;SDS011;47337;54.068;12.114;2024-01-06T04:27:15;8.02;;;4.10;;
61471;SDS011;47337;54.068;12.114;2024-01-06T04:29:40;8.15;;;3.22;;
61471;SDS011;47337;54.068;12.114;2024-01-06T04:32:08;6.07;;;3.65;;
61471;SDS011;47337;54.068;12.114;2024-01-06T04:34:35;6.63;;;4.00;;
61471;SDS011;47337;54.068;12.114;2024-01-06T04:37:02;5.50;;;3.63;;
61471;SDS011;47337;54.068;12.114;2024-01-06T04:39:27;7.28;;;3.90;;
61471;SDS011;47337;54.068;12.114;2024-01-06T04:41:52;10.25;;;4.00;;
61471;SDS011;47337;54.068;12.114;2024-01-06T04:44:21;5.72;;;3.30;;
61471;SDS011;47337;54.068;12.114;2024-01-06T04:46:47;7.47;;;4.07;;
61471;SDS011;47337;54.068;12.114;2024-01-06T04:49:14;7.63;;;3.58;;
61471;SDS011;47337;54.068;12.114;2024-01-06T04:51:39;7.43;;;3.33;;
61471;SDS011;47337;54.068;12.114;2024-01-06T04:54:04;6.57;;;3.35;;
61471;SDS011;47337;54.068;12.114;2024-01-06T04:56:30;6.45;;;3.35;;
61471;SDS011;47337;54.068;12.114;2024-01-06T04:58:55;6.70;;;3.55;;
61471;SDS011;47337;54.068;12.114;2024-01-06T05:01:21;7.68;;;3.20;;
61471;SDS011;47337;54.068;12.114;2024-01-06T05:03:46;11.80;;;3.88;;
61471;SDS011;47337;54.068;12.114;2024-01-06T05:06:11;6.25;;;3.22;;
61471;SDS011;47337;54.068;12.114;2024-01-06T05:08:37;7.80;;;3.40;;
61471;SDS011;47337;54.068;12.114;2024-01-06T05:11:06;8.23;;;3.33;;
61471;SDS011;47337;54.068;12.114;2024-01-06T05:13:31;7.30;;;3.05;;
61471;SDS011;47337;54.068;12.114;2024-01-06T05:15:59;7.47;;;3.50;;
61471;SDS011;47337;54.068;12.114;2024-01-06T05:18:24;7.60;;;3.30;;
61471;SDS011;47337;54.068;12.114;2024-01-06T05:20:49;5.10;;;2.60;;
61471;SDS011;47337;54.068;12.114;2024-01-06T05:23:17;6.57;;;3.38;;
61471;SDS011;47337;54.068;12.114;2024-01-06T05:25:46;6.50;;;3.08;;
61471;SDS011;47337;54.068;12.114;2024-01-06T05:28:11;5.55;;;2.80;;
61471;SDS011;47337;54.068;12.114;2024-01-06T05:30:36;4.45;;;2.90;;
61471;SDS011;47337;54.068;12.114;2024-01-06T05:33:01;5.25;;;3.17;;
61471;SDS011;47337;54.068;12.114;2024-01-06T05:35:27;4.22;;;2.65;;
61471;SDS011;47337;54.068;12.114;2024-01-06T05:37:53;5.25;;;2.88;;
61471;SDS011;47337;54.068;12.114;2024-01-06T05:40:18;8.02;;;3.05;;
61471;SDS011;47337;54.068;12.114;2024-01-06T05:42:43;5.28;;;2.60;;
61471;SDS011;47337;54.068;12.114;2024-01-06T05:45:11;7.60;;;3.28;;
61471;SDS011;47337;54.068;12.114;2024-01-06T05:47:39;8.00;;;3.08;;
61471;SDS011;47337;54.068;12.114;2024-01-06T05:50:05;5.65;;;2.53;;
61471;SDS011;47337;54.068;12.114;2024-01-06T05:52:30;7.05;;;3.03;;
61471;SDS011;47337;54.068;12.114;2024-01-06T05:54:55;8.25;;;3.45;;
61471;SDS011;47337;54.068;12.114;2024-01-06T05:57:21;4.28;;;2.70;;
61471;SDS011;47337;54.068;12.114;2024-01-06T05:59:46;6.10;;;2.25;;
61471;SDS011;47337;54.068;12.114;2024-01-06T06:02:11;5.25;;;3.05;;
61471;SDS011;47337;54.068;12.114;2024-01-06T06:04:36;5.03;;;2.47;;
61471;SDS011;47337;54.068;12.114;2024-01-06T06:07:01;6.78;;;2.60;;
61471;SDS011;47337;54.068;12.114;2024-01-06T06:09:27;6.82;;;3.08;;
61471;SDS011;47337;54.068;12.114;2024-01-06T06:11:53;3.40;;;2.08;;
61471;SDS011;47337;54.068;12.114;2024-01-06T06:14:19;4.45;;;3.00;;
61471;SDS011;47337;54.068;12.114;2024-01-06T06:16:44;4.88;;;2.15;;
61471;SDS011;47337;54.068;12.114;2024-01-06T06:19:09;4.95;;;2.28;;
61471;SDS011;47337;54.068;12.114;2024-01-06T06:21:34;4.05;;;1.70;;
61471;SDS011;47337;54.068;12.114;2024-01-06T06:24:00;6.22;;;2.20;;
61471;SDS011;47337;54.068;12.114;2024-01-06T06:26:25;7.82;;;2.20;;
61471;SDS011;47337;54.068;12.114;2024-01-06T06:28:50;3.97;;;2.30;;
61471;SDS011;47337;54.068;12.114;2024-01-06T06:31:16;4.07;;;1.63;;
61471;SDS011;47337;54.068;12.114;2024-01-06T06:33:41;2.03;;;1.10;;
61471;SDS011;47337;54.068;12.114;2024-01-06T06:36:07;3.75;;;1.27;;
61471;SDS011;47337;54.068;12.114;2024-01-06T06:38:35;3.58;;;1.48;;
61471;SDS011;47337;54.068;12.114;2024-01-06T06:41:02;2.33;;;1.05;;
61471;SDS011;47337;54.068;12.114;2024-01-06T06:43:28;2.58;;;1.15;;
61471;SDS011;47337;54.068;12.114;2024-01-06T06:45:53;3.25;;;1.30;;
61471;SDS011;47337;54.068;12.114;2024-01-06T06:48:20;2.55;;;1.10;;
61471;SDS011;47337;54.068;12.114;2024-01-06T06:50:47;3.65;;;1.65;;
61471;SDS011;47337;54.068;12.114;2024-01-06T06:53:13;2.20;;;1.13;;
61471;SDS011;47337;54.068;12.114;2024-01-06T06:55:38;2.33;;;1.60;;
61471;SDS011;47337;54.068;12.114;2024-01-06T06:58:05;3.33;;;1.10;;
61471;SDS011;47337;54.068;12.114;2024-01-06T07:00:31;2.53;;;0.80;;
61471;SDS011;47337;54.068;12.114;2024-01-06T07:02:56;2.95;;;1.00;;
61471;SDS011;47337;54.068;12.114;2024-01-06T07:05:22;1.30;;;0.80;;
61471;SDS011;47337;54.068;12.114;2024-01-06T07:07:47;3.03;;;0.52;;
61471;SDS011;47337;54.068;12.114;2024-01-06T07:10:13;1.42;;;0.73;;
61471;SDS011;47337;54.068;12.114;2024-01-06T07:12:40;2.15;;;0.70;;
61471;SDS011;47337;54.068;12.114;2024-01-06T07:15:05;1.23;;;0.70;;
61471;SDS011;47337;54.068;12.114;2024-01-06T07:17:31;1.02;;;0.63;;
61471;SDS011;47337;54.068;12.114;2024-01-06T07:19:56;0.80;;;0.60;;
61471;SDS011;47337;54.068;12.114;2024-01-06T07:22:21;1.73;;;0.68;;
61471;SDS011;47337;54.068;12.114;2024-01-06T07:24:47;1.05;;;0.60;;
61471;SDS011;47337;54.068;12.114;2024-01-06T07:27:12;1.50;;;0.68;;
61471;SDS011;47337;54.068;12.114;2024-01-06T07:29:37;0.80;;;0.70;;
61471;SDS011;47337;54.068;12.114;2024-01-06T07:32:03;1.85;;;0.88;;
61471;SDS011;47337;54.068;12.114;2024-01-06T07:34:29;0.95;;;0.52;;
61471;SDS011;47337;54.068;12.114;2024-01-06T07:36:54;2.25;;;0.82;;
61471;SDS011;47337;54.068;12.114;2024-01-06T07:39:19;0.73;;;0.50;;
61471;SDS011;47337;54.068;12.114;2024-01-06T07:41:45;1.20;;;0.85;;
61471;SDS011;47337;54.068;12.114;2024-01-06T07:44:11;2.08;;;0.68;;
61471;SDS011;47337;54.068;12.114;2024-01-06T07:46:36;1.90;;;0.98;;
61471;SDS011;47337;54.068;12.114;2024-01-06T07:49:05;3.17;;;1.00;;
61471;SDS011;47337;54.068;12.114;2024-01-06T07:51:31;2.35;;;0.77;;
61471;SDS011;47337;54.068;12.114;2024-01-06T07:54:00;1.55;;;0.85;;
61471;SDS011;47337;54.068;12.114;2024-01-06T07:56:25;5.07;;;1.08;;
61471;SDS011;47337;54.068;12.114;2024-01-06T07:58:51;1.88;;;1.00;;
61471;SDS011;47337;54.068;12.114;2024-01-06T08:01:17;2.63;;;0.90;;
61471;SDS011;47337;54.068;12.114;2024-01-06T08:03:42;1.25;;;0.90;;
61471;SDS011;47337;54.068;12.114;2024-01-06T08:06:10;1.38;;;0.90;;
61471;SDS011;47337;54.068;12.114;2024-01-06T08:08:35;1.70;;;1.02;;
61471;SDS011;47337;54.068;12.114;2024-01-06T08:11:01;1.33;;;0.80;;
61471;SDS011;47337;54.068;12.114;2024-01-06T08:13:26;0.98;;;0.70;;
61471;SDS011;47337;54.068;12.114;2024-01-06T08:15:53;3.13;;;0.80;;
61471;SDS011;47337;54.068;12.114;2024-01-06T08:18:19;1.33;;;0.82;;
61471;SDS011;47337;54.068;12.114;2024-01-06T08:20:46;1.58;;;0.70;;
61471;SDS011;47337;54.068;12.114;2024-01-06T08:23:11;3.13;;;1.23;;
61471;SDS011;47337;54.068;12.114;2024-01-06T08:25:36;1.92;;;0.90;;
61471;SDS011;47337;54.068;12.114;2024-01-06T08:28:02;1.42;;;0.50;;
61471;SDS011;47337;54.068;12.114;2024-01-06T08:30:29;1.65;;;1.13;;
61471;SDS011;47337;54.068;12.114;2024-01-06T08:32:54;1.05;;;0.80;;
61471;SDS011;47337;54.068;12.114;2024-01-06T08:35:20;1.55;;;1.23;;
61471;SDS011;47337;54.068;12.114;2024-01-06T08:37:45;1.45;;;0.75;;
61471;SDS011;47337;54.068;12.114;2024-01-06T08:40:11;2.30;;;1.00;;
61471;SDS011;47337;54.068;12.114;2024-01-06T08:42:36;1.70;;;0.75;;
61471;SDS011;47337;54.068;12.114;2024-01-06T08:45:01;1.70;;;0.80;;
61471;SDS011;47337;54.068;12.114;2024-01-06T08:47:27;1.15;;;0.82;;
61471;SDS011;47337;54.068;12.114;2024-01-06T08:49:52;1.60;;;0.98;;
61471;SDS011;47337;54.068;12.114;2024-01-06T08:52:18;1.83;;;0.75;;
61471;SDS011;47337;54.068;12.114;2024-01-06T08:54:43;1.83;;;0.80;;
61471;SDS011;47337;54.068;12.114;2024-01-06T08:57:09;5.55;;;1.05;;
61471;SDS011;47337;54.068;12.114;2024-01-06T08:59:34;3.40;;;0.90;;
61471;SDS011;47337;54.068;12.114;2024-01-06T09:02:00;2.38;;;1.10;;
61471;SDS011;47337;54.068;12.114;2024-01-06T09:04:26;0.73;;;0.63;;
61471;SDS011;47337;54.068;12.114;2024-01-06T09:06:51;1.58;;;0.88;;
61471;SDS011;47337;54.068;12.114;2024-01-06T09:09:16;1.73;;;0.77;;
61471;SDS011;47337;54.068;12.114;2024-01-06T09:11:42;2.60;;;0.73;;
61471;SDS011;47337;54.068;12.114;2024-01-06T09:14:09;2.78;;;0.82;;
61471;SDS011;47337;54.068;12.114;2024-01-06T09:16:35;2.75;;;1.13;;
61471;SDS011;47337;54.068;12.114;2024-01-06T09:19:01;6.15;;;1.48;;
61471;SDS011;47337;54.068;12.114;2024-01-06T09:21:26;2.47;;;1.10;;
61471;SDS011;47337;54.068;12.114;2024-01-06T09:23:54;3.53;;;1.40;;
61471;SDS011;47337;54.068;12.114;2024-01-06T09:26:19;2.38;;;0.82;;
61471;SDS011;47337;54.068;12.114;2024-01-06T09:28:49;1.30;;;0.73;;
61471;SDS011;47337;54.068;12.114;2024-01-06T09:31:14;1.30;;;1.10;;
61471;SDS011;47337;54.068;12.114;2024-01-06T09:33:42;2.47;;;1.08;;
61471;SDS011;47337;54.068;12.114;2024-01-06T09:36:07;1.42;;;0.90;;
61471;SDS011;47337;54.068;12.114;2024-01-06T09:38:36;1.45;;;1.20;;
61471;SDS011;47337;54.068;12.114;2024-01-06T09:41:01;1.63;;;0.73;;
61471;SDS011;47337;54.068;12.114;2024-01-06T09:43:29;4.53;;;1.20;;
61471;SDS011;47337;54.068;12.114;2024-01-06T09:46:02;1.10;;;1.00;;
61471;SDS011;47337;54.068;12.114;2024-01-06T09:48:32;1.83;;;0.85;;
61471;SDS011;47337;54.068;12.114;2024-01-06T09:51:01;6.30;;;1.42;;
61471;SDS011;47337;54.068;12.114;2024-01-06T09:53:28;2.15;;;0.88;;
61471;SDS011;47337;54.068;12.114;2024-01-06T09:55:58;1.45;;;1.10;;
61471;SDS011;47337;54.068;12.114;2024-01-06T09:58:23;3.30;;;1.05;;
61471;SDS011;47337;54.068;12.114;2024-01-06T10:00:48;2.58;;;0.77;;
61471;SDS011;47337;54.068;12.114;2024-01-06T10:03:17;1.77;;;1.05;;
61471;SDS011;47337;54.068;12.114;2024-01-06T10:05:42;2.08;;;1.02;;
61471;SDS011;47337;54.068;12.114;2024-01-06T10:08:07;2.22;;;0.93;;
61471;SDS011;47337;54.068;12.114;2024-01-06T10:10:35;2.22;;;1.15;;
61471;SDS011;47337;54.068;12.114;2024-01-06T10:13:00;1.30;;;0.90;;
61471;SDS011;47337;54.068;12.114;2024-01-06T10:15:26;3.90;;;1.35;;
61471;SDS011;47337;54.068;12.114;2024-01-06T10:17:53;2.70;;;1.40;;
61471;SDS011;47337;54.068;12.114;2024-01-06T10:20:18;2.03;;;1.13;;
61471;SDS011;47337;54.068;12.114;2024-01-06T10:22:45;3.22;;;1.65;;
61471;SDS011;47337;54.068;12.114;2024-01-06T10:25:10;1.15;;;0.93;;
61471;SDS011;47337;54.068;12.114;2024-01-06T10:27:37;1.77;;;1.42;;
61471;SDS011;47337;54.068;12.114;2024-01-06T10:30:02;3.08;;;1.33;;
61471;SDS011;47337;54.068;12.114;2024-01-06T10:32:31;3.00;;;1.35;;
61471;SDS011;47337;54.068;12.114;2024-01-06T10:34:56;2.17;;;1.23;;
61471;SDS011;47337;54.068;12.114;2024-01-06T10:37:22;2.05;;;1.27;;
61471;SDS011;47337;54.068;12.114;2024-01-06T10:39:49;2.00;;;1.15;;
61471;SDS011;47337;54.068;12.114;2024-01-06T10:42:29;2.97;;;1.70;;
61471;SDS011;47337;54.068;12.114;2024-01-06T10:44:58;2.63;;;1.38;;
61471;SDS011;47337;54.068;12.114;2024-01-06T10:47:23;2.17;;;1.17;;
61471;SDS011;47337;54.068;12.114;2024-01-06T10:49:51;2.72;;;1.65;;
61471;SDS011;47337;54.068;12.114;2024-01-06T10:52:21;6.05;;;1.95;;
61471;SDS011;47337;54.068;12.114;2024-01-06T10:54:50;2.55;;;1.42;;
61471;SDS011;47337;54.068;12.114;2024-01-06T10:57:16;4.50;;;1.40;;
61471;SDS011;47337;54.068;12.114;2024-01-06T10:59:43;2.58;;;1.38;;
61471;SDS011;47337;54.068;12.114;2024-01-06T11:02:12;3.03;;;1.38;;
61471;SDS011;47337;54.068;12.114;2024-01-06T11:04:41;3.20;;;1.30;;
61471;SDS011;47337;54.068;12.114;2024-01-06T11:07:07;2.33;;;1.58;;
61471;SDS011;47337;54.068;12.114;2024-01-06T11:09:32;5.35;;;1.80;;
61471;SDS011;47337;54.068;12.114;2024-01-06T11:12:00;3.38;;;1.70;;
61471;SDS011;47337;54.068;12.114;2024-01-06T11:14:26;5.53;;;1.45;;
61471;SDS011;47337;54.068;12.114;2024-01-06T11:16:52;4.68;;;1.40;;
61471;SDS011;47337;54.068;12.114;2024-01-06T11:22:20;2.90;;;1.60;;
61471;SDS011;47337;54.068;12.114;2024-01-06T11:24:48;2.83;;;1.08;;
61471;SDS011;47337;54.068;12.114;2024-01-06T11:27:17;2.80;;;1.60;;
61471;SDS011;47337;54.068;12.114;2024-01-06T11:29:45;3.85;;;1.77;;
61471;SDS011;47337;54.068;12.114;2024-01-06T11:34:42;4.32;;;1.48;;
61471;SDS011;47337;54.068;12.114;2024-01-06T11:37:07;3.00;;;1.63;;
61471;SDS011;47337;54.068;12.114;2024-01-06T11:42:05;4.22;;;1.65;;
61471;SDS011;47337;54.068;12.114;2024-01-06T11:44:34;3.03;;;1.60;;
61471;SDS011;47337;54.068;12.114;2024-01-06T11:47:01;2.47;;;1.40;;
61471;SDS011;47337;54.068;12.114;2024-01-06T11:49:29;2.72;;;1.33;;
61471;SDS011;47337;54.068;12.114;2024-01-06T11:51:57;2.70;;;1.42;;
61471;SDS011;47337;54.068;12.114;2024-01-06T11:54:22;1.27;;;0.90;;
61471;SDS011;47337;54.068;12.114;2024-01-06T11:56:48;2.78;;;1.55;;
61471;SDS011;47337;54.068;12.114;2024-01-06T11:59:13;2.72;;;1.45;;
61471;SDS011;47337;54.068;12.114;2024-01-06T12:01:43;2.45;;;1.17;;
61471;SDS011;47337;54.068;12.114;2024-01-06T12:04:11;3.53;;;1.75;;
61471;SDS011;47337;54.068;12.114;2024-01-06T12:06:38;4.90;;;1.83;;
61471;SDS011;47337;54.068;12.114;2024-01-06T12:09:04;3.38;;;1.40;;
61471;SDS011;47337;54.068;12.114;2024-01-06T12:11:32;3.33;;;2.33;;
61471;SDS011;47337;54.068;12.114;2024-01-06T12:13:57;2.30;;;1.52;;
61471;SDS011;47337;54.068;12.114;2024-01-06T12:16:22;1.73;;;1.27;;
61471;SDS011;47337;54.068;12.114;2024-01-06T12:18:52;6.22;;;1.33;;
61471;SDS011;47337;54.068;12.114;2024-01-06T12:21:17;2.97;;;1.20;;
61471;SDS011;47337;54.068;12.114;2024-01-06T12:23:42;3.22;;;1.75;;
61471;SDS011;47337;54.068;12.114;2024-01-06T12:26:08;3.92;;;1.40;;
61471;SDS011;47337;54.068;12.114;2024-01-06T12:28:37;2.90;;;1.60;;
61471;SDS011;47337;54.068;12.114;2024-01-06T12:31:04;2.78;;;1.38;;
61471;SDS011;47337;54.068;12.114;2024-01-06T12:33:29;4.70;;;1.50;;
61471;SDS011;47337;54.068;12.114;2024-01-06T12:35:56;2.95;;;1.30;;
61471;SDS011;47337;54.068;12.114;2024-01-06T12:38:22;1.75;;;0.88;;
61471;SDS011;47337;54.068;12.114;2024-01-06T12:40:47;1.83;;;1.13;;
61471;SDS011;47337;54.068;12.114;2024-01-06T12:43:12;2.20;;;1.10;;
61471;SDS011;47337;54.068;12.114;2024-01-06T12:45:37;2.08;;;1.20;;
61471;SDS011;47337;54.068;12.114;2024-01-06T12:48:05;2.35;;;1.23;;
61471;SDS011;47337;54.068;12.114;2024-01-06T12:50:31;3.67;;;1.27;;
61471;SDS011;47337;54.068;12.114;2024-01-06T12:52:56;2.25;;;1.17;;
61471;SDS011;47337;54.068;12.114;2024-01-06T12:55:21;2.28;;;1.48;;
61471;SDS011;47337;54.068;12.114;2024-01-06T12:57:46;2.25;;;1.25;;
61471;SDS011;47337;54.068;12.114;2024-01-06T13:00:12;3.35;;;1.48;;
61471;SDS011;47337;54.068;12.114;2024-01-06T13:02:38;4.57;;;1.40;;
61471;SDS011;47337;54.068;12.114;2024-01-06T13:05:03;2.75;;;1.40;;
61471;SDS011;47337;54.068;12.114;2024-01-06T13:07:29;4.82;;;1.60;;
61471;SDS011;47337;54.068;12.114;2024-01-06T13:09:54;3.40;;;1.20;;
61471;SDS011;47337;54.068;12.114;2024-01-06T13:12:22;2.67;;;1.35;;
61471;SDS011;47337;54.068;12.114;2024-01-06T13:14:48;1.10;;;0.90;;
61471;SDS011;47337;54.068;12.114;2024-01-06T13:17:14;1.60;;;1.20;;
61471;SDS011;47337;54.068;12.114;2024-01-06T13:19:39;2.67;;;1.30;;
61471;SDS011;47337;54.068;12.114;2024-01-06T13:22:05;3.35;;;1.25;;
61471;SDS011;47337;54.068;12.114;2024-01-06T13:24:30;2.90;;;1.23;;
61471;SDS011;47337;54.068;12.114;2024-01-06T13:26:55;2.47;;;1.35;;
61471;SDS011;47337;54.068;12.114;2024-01-06T13:29:20;3.53;;;1.15;;
61471;SDS011;47337;54.068;12.114;2024-01-06T13:31:47;2.00;;;1.10;;
61471;SDS011;47337;54.068;12.114;2024-01-06T13:34:12;2.15;;;1.42;;
61471;SDS011;47337;54.068;12.114;2024-01-06T13:36:40;4.03;;;1.13;;
61471;SDS011;47337;54.068;12.114;2024-01-06T13:39:07;4.80;;;1.10;;
61471;SDS011;47337;54.068;12.114;2024-01-06T13:41:33;1.40;;;1.05;;
61471;SDS011;47337;54.068;12.114;2024-01-06T13:43:58;2.47;;;1.10;;
61471;SDS011;47337;54.068;12.114;2024-01-06T13:46:23;2.00;;;1.15;;
61471;SDS011;47337;54.068;12.114;2024-01-06T13:48:50;2.58;;;1.02;;
61471;SDS011;47337;54.068;12.114;2024-01-06T13:51:15;3.10;;;1.00;;
61471;SDS011;47337;54.068;12.114;2024-01-06T13:53:40;1.77;;;1.00;;
61471;SDS011;47337;54.068;12.114;2024-01-06T13:56:05;3.90;;;1.48;;
61471;SDS011;47337;54.068;12.114;2024-01-06T13:58:33;1.95;;;1.25;;
61471;SDS011;47337;54.068;12.114;2024-01-06T14:01:00;2.35;;;1.25;;
61471;SDS011;47337;54.068;12.114;2024-01-06T14:03:26;4.50;;;1.58;;
61471;SDS011;47337;54.068;12.114;2024-01-06T14:05:51;2.65;;;1.00;;
61471;SDS011;47337;54.068;12.114;2024-01-06T14:08:18;2.30;;;1.40;;
61471;SDS011;47337;54.068;12.114;2024-01-06T14:10:46;3.22;;;1.30;;
61471;SDS011;47337;54.068;12.114;2024-01-06T14:13:11;2.95;;;1.17;;
61471;SDS011;47337;54.068;12.114;2024-01-06T14:15:39;1.98;;;1.10;;
61471;SDS011;47337;54.068;12.114;2024-01-06T14:18:05;3.60;;;1.15;;
61471;SDS011;47337;54.068;12.114;2024-01-06T14:20:30;4.18;;;1.05;;
61471;SDS011;47337;54.068;12.114;2024-01-06T14:22:56;2.78;;;1.63;;
61471;SDS011;47337;54.068;12.114;2024-01-06T14:25:22;3.55;;;1.25;;
61471;SDS011;47337;54.068;12.114;2024-01-06T14:27:47;2.42;;;1.13;;
61471;SDS011;47337;54.068;12.114;2024-01-06T14:30:13;4.45;;;1.20;;
61471;SDS011;47337;54.068;12.114;2024-01-06T14:32:38;2.13;;;1.20;;